Halstead, Kansas
Current Conditions -  °F | °C
As of 3:15 PM on Friday 24 Oct 2014 (Local Time) from KEWK Reporting Station
Clear Clear  
Wind Chill: 79°   Ceiling: Unl
Heat Index: 80°   Visibility: 10mi
Dew Point: 61°   Wind: 13mph
Humidity: 54%   Direction: 210°SSW
Pressure: 30.01"   Gusts: NA
Location:  38°N, 97.51°W
Report Text: KEWK 242015Z AUTO 21011KT 10SM CLR 26/16 A3001 RMK AO1
Loading
Personal Weather Stations






























Interactive Weather Map
Tropical Storm Tracking
New forecast layout! Learn more

10-Day Weather Forecast

Advertisements
Track Severe Weather on mobile